Time;durP1;ratioP1;P1;durP2;ratioP2;P2;SDS_P1;SDS_P2;PMS_P1;PMS_P2;Temp;Humidity;BMP_temperature;BMP_pressure;BME280_temperature;BME280_humidity;BME280_pressure;Samples;Min_cycle;Max_cycle;Signal;HPM_P1;HPM_P2
2022/11/26 00:00:13;;;;;;;37.10;15.75;;;;;;;4.71;100.00;102423.22;5284244;28;20056;-74
2022/11/26 00:02:45;;;;;;;33.85;14.35;;;;;;;4.71;100.00;102425.81;5282202;28;20158;-75
2022/11/26 00:05:17;;;;;;;39.72;16.10;;;;;;;4.70;100.00;102430.09;5282201;28;20032;-75
2022/11/26 00:07:54;;;;;;;36.50;16.00;;;;;;;4.72;100.00;102425.00;5283545;28;20037;-74
2022/11/26 00:10:33;;;;;;;40.22;16.45;;;;;;;4.71;100.00;102428.38;5284119;28;20082;-75
2022/11/26 00:13:15;;;;;;;31.25;14.85;;;;;;;4.66;100.00;102428.22;5283945;28;20074;-74
2022/11/26 00:15:47;;;;;;;26.85;14.88;;;;;;;4.68;100.00;102423.97;5283702;28;20451;-75
2022/11/26 00:18:19;;;;;;;30.77;15.10;;;;;;;4.57;100.00;102431.34;5283136;28;20068;-74
2022/11/26 00:20:54;;;;;;;27.63;13.97;;;;;;;4.62;100.00;102435.78;5284044;28;20520;-74
2022/11/26 00:23:27;;;;;;;33.90;14.95;;;;;;;4.58;100.00;102439.97;5283630;28;20032;-74
2022/11/26 00:26:01;;;;;;;32.53;16.20;;;;;;;4.52;100.00;102443.19;5283512;28;20035;-74
2022/11/26 00:28:35;;;;;;;33.05;15.32;;;;;;;4.56;100.00;102444.19;5283560;28;20024;-73
2022/11/26 00:31:12;;;;;;;30.52;15.00;;;;;;;4.49;100.00;102442.19;5283497;28;20035;-74
2022/11/26 00:33:44;;;;;;;35.47;14.60;;;;;;;4.39;100.00;102443.53;5283435;28;20035;-74
2022/11/26 00:36:26;;;;;;;33.93;14.90;;;;;;;4.38;100.00;102434.91;5283747;28;20464;-73
2022/11/26 00:39:08;;;;;;;31.02;14.68;;;;;;;4.32;100.00;102433.78;5283441;28;20379;-74
2022/11/26 00:41:40;;;;;;;37.50;14.60;;;;;;;4.27;100.00;102443.06;5283694;28;20021;-74
2022/11/26 00:44:23;;;;;;;35.83;14.53;;;;;;;4.18;100.00;102440.97;5283678;28;20039;-74
2022/11/26 00:46:55;;;;;;;30.48;14.77;;;;;;;4.13;100.00;102445.94;5283602;28;20032;-74
2022/11/26 00:49:27;;;;;;;41.07;15.97;;;;;;;4.10;100.00;102448.41;5283311;28;20517;-73
2022/11/26 00:51:59;;;;;;;30.05;13.82;;;;;;;4.04;100.00;102445.56;5283401;28;20490;-73
2022/11/26 00:54:31;;;;;;;25.37;13.43;;;;;;;3.99;100.00;102447.09;5282136;28;20040;-74
2022/11/26 00:57:02;;;;;;;30.55;14.55;;;;;;;3.97;100.00;102446.16;5283364;28;20377;-74
2022/11/26 00:59:34;;;;;;;34.13;15.47;;;;;;;3.93;100.00;102449.41;5283219;28;20173;-74
2022/11/26 01:02:05;;;;;;;36.67;15.97;;;;;;;3.89;100.00;102450.97;5283460;28;20043;-74
2022/11/26 01:04:36;;;;;;;31.83;14.30;;;;;;;3.88;100.00;102453.50;5288909;28;20036;-74
2022/11/26 01:07:09;;;;;;;32.27;14.30;;;;;;;3.81;100.00;102463.56;5292447;28;20112;-74
2022/11/26 01:09:45;;;;;;;36.40;15.43;;;;;;;3.82;100.00;102461.88;5288442;28;20408;-74
2022/11/26 01:12:16;;;;;;;40.03;16.13;;;;;;;3.79;100.00;102454.00;5287305;28;20029;-74
2022/11/26 01:14:47;;;;;;;32.37;15.80;;;;;;;3.80;100.00;102455.75;5287292;28;20028;-74
2022/11/26 01:17:19;;;;;;;37.63;18.07;;;;;;;3.80;100.00;102451.50;5287322;28;20030;-74
2022/11/26 01:19:50;;;;;;;37.00;17.57;;;;;;;3.78;100.00;102447.06;5288057;28;20052;-74
2022/11/26 01:22:22;;;;;;;35.73;16.93;;;;;;;3.78;100.00;102450.56;5287316;28;20103;-74
2022/11/26 01:24:53;;;;;;;35.63;17.97;;;;;;;3.74;100.00;102446.06;5286992;28;20029;-74
2022/11/26 01:27:25;;;;;;;34.23;17.50;;;;;;;3.76;100.00;102451.28;5286841;28;20112;-74
2022/11/26 01:29:56;;;;;;;31.97;15.67;;;;;;;3.73;100.00;102446.00;5286933;28;20032;-73
2022/11/26 01:32:27;;;;;;;32.00;16.33;;;;;;;3.70;100.00;102439.00;5286479;28;20038;-74
2022/11/26 01:34:59;;;;;;;31.13;15.87;;;;;;;3.67;100.00;102438.91;5286608;28;20060;-74
2022/11/26 01:37:30;;;;;;;37.43;17.57;;;;;;;3.64;100.00;102442.22;5285635;28;20475;-74
2022/11/26 01:40:03;;;;;;;38.70;17.37;;;;;;;3.63;100.00;102443.03;5286693;28;20028;-74
2022/11/26 01:42:43;;;;;;;37.97;17.50;;;;;;;3.61;100.00;102446.38;5286528;28;20472;-74
2022/11/26 01:45:17;;;;;;;31.92;15.93;;;;;;;3.60;100.00;102458.38;5286501;28;20025;-73
2022/11/26 01:47:48;;;;;;;39.40;17.42;;;;;;;3.61;100.00;102454.13;5286331;28;20542;-73
2022/11/26 01:50:33;;;;;;;34.57;17.73;;;;;;;3.57;100.00;102463.41;5286398;28;20056;-72
2022/11/26 01:53:16;;;;;;;30.63;16.02;;;;;;;3.57;100.00;102468.56;5286269;28;20025;-73
2022/11/26 01:55:53;;;;;;;42.28;17.20;;;;;;;3.54;100.00;102477.84;5286630;28;20028;-74
2022/11/26 01:58:32;;;;;;;31.75;16.85;;;;;;;3.51;100.00;102475.16;5286287;28;20079;-73
2022/11/26 02:01:04;;;;;;;35.67;16.70;;;;;;;3.46;100.00;102472.38;5286875;28;20028;-73
2022/11/26 02:03:54;;;;;;;35.90;19.13;;;;;;;3.45;100.00;102463.75;5286728;28;20475;-73
2022/11/26 02:06:30;;;;;;;30.60;17.70;;;;;;;3.47;100.00;102472.44;5286313;28;20032;-73
2022/11/26 02:09:05;;;;;;;41.20;17.45;;;;;;;3.46;100.00;102477.53;5286154;28;20032;-73
2022/11/26 02:11:38;;;;;;;42.45;18.40;;;;;;;3.38;100.00;102476.31;5286303;28;20032;-73
2022/11/26 02:14:30;;;;;;;42.38;19.13;;;;;;;3.43;100.00;102480.88;5286181;28;20028;-73
2022/11/26 02:17:33;;;;;;;46.13;19.17;;;;;;;3.45;100.00;102484.38;5285238;28;20036;-73
2022/11/26 02:20:39;;;;;;;41.28;18.08;;;;;;;3.38;100.00;102486.63;5285197;28;20091;-73
2022/11/26 02:23:27;;;;;;;39.30;18.52;;;;;;;3.45;100.00;102493.81;5285905;28;20043;-73
2022/11/26 02:26:25;;;;;;;42.63;18.55;;;;;;;3.54;100.00;102488.16;5285757;28;20036;-73
2022/11/26 02:29:02;;;;;;;38.22;19.15;;;;;;;3.54;100.00;102501.06;5285682;28;20037;-74
2022/11/26 02:31:54;;;;;;;39.90;21.70;;;;;;;3.57;100.00;102494.34;5285349;28;20104;-73
2022/11/26 02:34:47;;;;;;;43.75;20.77;;;;;;;3.57;100.00;102496.03;5285487;28;20102;-73
2022/11/26 02:37:32;;;;;;;45.83;21.05;;;;;;;3.57;100.00;102494.34;5285920;28;20032;-73
2022/11/26 02:40:07;;;;;;;51.22;21.35;;;;;;;3.59;100.00;102495.31;5286036;28;20032;-73
2022/11/26 02:42:38;;;;;;;45.38;18.25;;;;;;;3.55;100.00;102488.25;5284011;28;20025;-73
2022/11/26 02:45:18;;;;;;;46.47;19.73;;;;;;;3.48;100.00;102491.38;5284905;28;20392;-73
2022/11/26 02:47:52;;;;;;;48.20;20.00;;;;;;;3.54;100.00;102493.31;5283968;28;20032;-73
2022/11/26 02:50:29;;;;;;;41.20;20.42;;;;;;;3.55;100.00;102497.69;5285275;28;20428;-72
2022/11/26 02:53:02;;;;;;;37.13;18.50;;;;;;;3.49;100.00;102500.00;5285201;28;20058;-72
2022/11/26 02:55:38;;;;;;;41.15;19.63;;;;;;;3.44;100.00;102497.19;5284908;28;20068;-73
2022/11/26 02:58:10;;;;;;;41.15;19.52;;;;;;;3.41;100.00;102502.22;5283786;28;20024;-72
2022/11/26 03:00:42;;;;;;;38.77;19.97;;;;;;;3.38;100.00;102503.00;5285301;28;20040;-73
2022/11/26 03:03:22;;;;;;;42.03;20.20;;;;;;;3.34;100.00;102505.34;5285273;28;20052;-73
2022/11/26 03:06:03;;;;;;;40.65;18.33;;;;;;;3.35;100.00;102507.09;5285692;28;20025;-73
2022/11/26 03:08:35;;;;;;;43.60;21.30;;;;;;;3.34;100.00;102511.38;5283856;28;20025;-73
2022/11/26 03:11:07;;;;;;;42.55;18.85;;;;;;;3.27;100.00;102511.94;5285055;28;20028;-73
2022/11/26 03:13:38;;;;;;;49.43;21.73;;;;;;;3.24;100.00;102514.38;5284336;28;20107;-73
2022/11/26 03:16:09;;;;;;;41.13;17.87;;;;;;;3.21;100.00;102512.53;5284514;28;20029;-73
2022/11/26 03:18:41;;;;;;;48.20;19.57;;;;;;;3.26;100.00;102523.06;5284610;28;20066;-73
2022/11/26 03:21:12;;;;;;;42.43;19.77;;;;;;;3.23;100.00;102528.06;5284360;28;20082;-73
2022/11/26 03:23:44;;;;;;;49.20;19.47;;;;;;;3.23;100.00;102533.22;5284583;28;20040;-73
2022/11/26 03:26:15;;;;;;;37.77;18.57;;;;;;;3.21;100.00;102525.41;5284282;28;20468;-73
2022/11/26 03:28:47;;;;;;;41.50;19.87;;;;;;;3.15;100.00;102525.13;5284379;28;20025;-74
2022/11/26 03:31:18;;;;;;;42.67;18.60;;;;;;;3.15;100.00;102532.84;5283981;28;20088;-73
2022/11/26 03:33:49;;;;;;;41.73;19.93;;;;;;;3.19;100.00;102533.88;5284237;28;20029;-74
2022/11/26 03:36:21;;;;;;;43.13;21.20;;;;;;;3.09;100.00;102536.06;5284308;28;20034;-73
2022/11/26 03:38:52;;;;;;;47.70;20.23;;;;;;;3.16;100.00;102544.94;5283839;28;20031;-73
2022/11/26 03:41:23;;;;;;;44.07;20.40;;;;;;;3.13;100.00;102533.63;5283995;28;20041;-73
2022/11/26 03:43:55;;;;;;;44.60;20.63;;;;;;;3.12;100.00;102526.69;5283660;28;20438;-73
2022/11/26 03:46:26;;;;;;;38.83;19.37;;;;;;;3.09;100.00;102530.00;5283538;28;20028;-73
2022/11/26 03:48:57;;;;;;;50.00;20.20;;;;;;;3.09;100.00;102530.00;5284101;28;20071;-73
2022/11/26 03:51:29;;;;;;;40.40;18.73;;;;;;;3.01;100.00;102532.25;5283872;28;20029;-73
2022/11/26 03:54:00;;;;;;;44.57;18.37;;;;;;;3.04;100.00;102534.97;5283524;28;20029;-73
2022/11/26 03:56:31;;;;;;;42.97;19.40;;;;;;;3.05;100.00;102538.41;5283834;28;20385;-73
2022/11/26 03:59:03;;;;;;;49.90;20.03;;;;;;;3.01;100.00;102534.81;5283983;28;20024;-73
2022/11/26 04:01:34;;;;;;;48.73;20.07;;;;;;;2.99;100.00;102532.97;5282996;28;20055;-73
2022/11/26 04:04:06;;;;;;;41.27;19.40;;;;;;;3.01;100.00;102539.06;5283803;28;20113;-73
2022/11/26 04:06:37;;;;;;;53.30;19.17;;;;;;;2.99;100.00;102546.72;5283852;28;20123;-73
2022/11/26 04:09:09;;;;;;;45.10;19.00;;;;;;;3.04;100.00;102544.38;5282996;28;20036;-73
2022/11/26 04:11:40;;;;;;;44.73;18.30;;;;;;;2.98;100.00;102552.72;5283737;28;20036;-73
2022/11/26 04:14:11;;;;;;;52.10;19.10;;;;;;;3.01;100.00;102557.09;5283920;28;20032;-73
2022/11/26 04:16:43;;;;;;;42.13;18.30;;;;;;;3.00;100.00;102565.66;5283331;28;20032;-73
2022/11/26 04:19:14;;;;;;;49.73;20.17;;;;;;;2.97;100.00;102558.66;5283594;28;20052;-73
2022/11/26 04:21:45;;;;;;;40.97;18.00;;;;;;;2.92;100.00;102566.16;5282070;28;20037;-73
2022/11/26 04:24:17;;;;;;;50.27;18.33;;;;;;;2.88;100.00;102569.44;5283248;28;20064;-73
2022/11/26 04:26:48;;;;;;;41.23;19.23;;;;;;;2.96;100.00;102569.75;5281634;28;20043;-72
2022/11/26 04:29:19;;;;;;;38.40;17.80;;;;;;;2.97;100.00;102568.97;5282831;28;20063;-72
2022/11/26 04:31:51;;;;;;;43.03;19.50;;;;;;;3.01;100.00;102564.84;5283210;28;20036;-72
2022/11/26 04:34:22;;;;;;;44.43;18.90;;;;;;;3.02;100.00;102566.59;5283261;28;20036;-72
2022/11/26 04:36:54;;;;;;;43.80;19.20;;;;;;;2.99;100.00;102558.72;5283349;28;20028;-72
2022/11/26 04:39:25;;;;;;;55.27;20.33;;;;;;;3.02;100.00;102564.03;5282903;28;20163;-73
2022/11/26 04:41:57;;;;;;;41.13;18.93;;;;;;;2.97;100.00;102568.97;5283066;28;20025;-73
2022/11/26 04:44:28;;;;;;;40.37;18.60;;;;;;;2.98;100.00;102565.59;5283360;28;20044;-73
2022/11/26 04:46:59;;;;;;;45.77;18.93;;;;;;;3.00;100.00;102565.66;5283033;28;20028;-74
2022/11/26 04:49:31;;;;;;;43.13;19.50;;;;;;;3.01;100.00;102567.41;5281950;28;20388;-74
2022/11/26 04:52:02;;;;;;;44.67;17.10;;;;;;;2.96;100.00;102574.91;5282995;28;20028;-73
2022/11/26 04:54:33;;;;;;;43.03;17.23;;;;;;;2.94;100.00;102570.53;5283401;28;20024;-73
2022/11/26 04:57:05;;;;;;;37.33;17.90;;;;;;;2.98;100.00;102569.84;5283227;28;20106;-74
2022/11/26 04:59:36;;;;;;;41.67;18.63;;;;;;;3.02;100.00;102571.75;5282838;28;20032;-73
2022/11/26 05:02:08;;;;;;;46.47;19.63;;;;;;;3.07;100.00;102575.44;5283149;28;20039;-73
2022/11/26 05:04:39;;;;;;;52.10;19.63;;;;;;;3.04;100.00;102570.13;5283096;28;20043;-73
2022/11/26 05:07:11;;;;;;;50.07;19.20;;;;;;;3.02;100.00;102576.91;5281930;28;20135;-73
2022/11/26 05:09:42;;;;;;;46.73;17.93;;;;;;;3.04;100.00;102570.13;5282318;28;20464;-73
2022/11/26 05:12:13;;;;;;;45.83;19.70;;;;;;;3.02;100.00;102576.91;5282377;28;20437;-73
2022/11/26 05:14:45;;;;;;;53.30;19.10;;;;;;;3.04;100.00;102577.84;5282426;28;20376;-73
2022/11/26 05:17:16;;;;;;;45.10;19.47;;;;;;;3.06;100.00;102578.84;5282671;28;20043;-74
2022/11/26 05:19:48;;;;;;;51.53;20.67;;;;;;;3.09;100.00;102584.09;5283388;28;20117;-73
2022/11/26 05:22:19;;;;;;;40.90;17.97;;;;;;;3.13;100.00;102587.72;5283252;28;20116;-74
2022/11/26 05:24:50;;;;;;;44.90;19.40;;;;;;;3.08;100.00;102582.38;5283126;28;20456;-73
2022/11/26 05:27:22;;;;;;;53.70;20.87;;;;;;;3.09;100.00;102589.25;5282873;28;20488;-73
2022/11/26 05:29:53;;;;;;;54.17;19.60;;;;;;;3.09;100.00;102585.00;5283307;28;20052;-73
2022/11/26 05:32:24;;;;;;;50.83;18.23;;;;;;;3.05;100.00;102590.81;5282894;28;20186;-73
2022/11/26 05:34:56;;;;;;;44.73;17.53;;;;;;;3.07;100.00;102593.47;5281410;28;20060;-73
2022/11/26 05:37:27;;;;;;;43.90;19.43;;;;;;;3.07;100.00;102593.47;5282668;28;20025;-73
2022/11/26 05:39:59;;;;;;;46.10;17.33;;;;;;;3.06;100.00;102591.72;5282931;28;20101;-73
2022/11/26 05:42:30;;;;;;;65.10;20.80;;;;;;;3.06;100.00;102589.16;5283316;28;20032;-73
2022/11/26 05:45:03;;;;;;;47.87;18.97;;;;;;;3.07;100.00;102596.03;5282778;28;20118;-74
2022/11/26 05:47:35;;;;;;;46.47;18.23;;;;;;;3.08;100.00;102600.41;5282089;28;20028;-74
2022/11/26 05:50:07;;;;;;;51.07;19.73;;;;;;;3.07;100.00;102598.63;5283688;28;20381;-74
2022/11/26 05:52:38;;;;;;;49.97;21.02;;;;;;;3.03;100.00;102600.19;5286345;28;20046;-74
2022/11/26 05:55:10;;;;;;;43.33;20.53;;;;;;;3.03;100.00;102600.19;5286812;28;20142;-74
2022/11/26 05:57:41;;;;;;;55.67;19.80;;;;;;;3.05;100.00;102606.28;5286284;28;20051;-73
2022/11/26 06:00:13;;;;;;;43.53;18.37;;;;;;;3.00;100.00;102609.47;5285927;28;20471;-74
2022/11/26 06:02:45;;;;;;;43.75;19.17;;;;;;;2.94;100.00;102616.88;5284916;28;20029;-74
2022/11/26 06:05:16;;;;;;;47.47;19.50;;;;;;;2.99;100.00;102620.56;5286258;28;20422;-74
2022/11/26 06:07:48;;;;;;;46.37;18.13;;;;;;;3.02;100.00;102624.16;5286406;28;20024;-74
2022/11/26 06:10:19;;;;;;;44.57;19.43;;;;;;;2.97;100.00;102635.06;5285583;28;20472;-74
2022/11/26 06:12:51;;;;;;;58.67;22.57;;;;;;;3.02;100.00;102633.59;5285726;28;20321;-74
2022/11/26 06:15:22;;;;;;;51.67;18.70;;;;;;;3.04;100.00;102635.44;5284762;28;20043;-75
2022/11/26 06:17:54;;;;;;;48.63;19.10;;;;;;;2.98;100.00;102630.00;5286098;28;20064;-75
2022/11/26 06:20:25;;;;;;;44.47;18.57;;;;;;;3.00;100.00;102632.66;5285897;28;20032;-75
2022/11/26 06:22:56;;;;;;;41.80;18.80;;;;;;;3.01;100.00;102632.72;5286055;28;20119;-75
2022/11/26 06:25:28;;;;;;;55.57;21.67;;;;;;;3.04;100.00;102624.25;5267909;28;20024;-75
2022/11/26 06:27:59;;;;;;;41.47;18.10;;;;;;;3.01;100.00;102631.81;5285715;28;20033;-75
2022/11/26 06:30:30;;;;;;;44.10;20.13;;;;;;;2.98;100.00;102635.16;5285166;28;20042;-75
2022/11/26 06:33:02;;;;;;;46.27;18.97;;;;;;;2.96;100.00;102634.16;5285923;28;20036;-75
2022/11/26 06:35:33;;;;;;;49.17;19.47;;;;;;;2.97;100.00;102640.22;5285611;28;20542;-75
2022/11/26 06:38:04;;;;;;;48.33;21.80;;;;;;;3.00;100.00;102630.94;5285577;28;20035;-75
2022/11/26 06:40:36;;;;;;;58.00;21.80;;;;;;;2.93;100.00;102626.31;5285532;28;20028;-75
2022/11/26 06:43:07;;;;;;;52.97;19.80;;;;;;;2.94;100.00;102637.50;5284907;28;20452;-75
2022/11/26 06:45:39;;;;;;;48.57;21.07;;;;;;;2.88;100.00;102641.56;5285493;28;20040;-75
2022/11/26 06:48:10;;;;;;;48.70;19.60;;;;;;;2.87;100.00;102649.19;5285025;28;20036;-75
2022/11/26 06:50:41;;;;;;;46.83;20.20;;;;;;;2.84;100.00;102647.34;5285557;28;20379;-75
2022/11/26 06:53:13;;;;;;;55.33;19.40;;;;;;;2.79;100.00;102643.66;5283801;28;20032;-76
2022/11/26 06:55:44;;;;;;;45.27;17.67;;;;;;;2.80;100.00;102649.69;5285312;28;20044;-74
2022/11/26 06:58:15;;;;;;;43.33;20.07;;;;;;;2.76;100.00;102653.81;5284943;28;20051;-75
2022/11/26 07:00:47;;;;;;;52.13;20.23;;;;;;;2.77;100.00;102642.72;5285419;28;20098;-75
2022/11/26 07:03:18;;;;;;;45.93;18.83;;;;;;;2.77;100.00;102647.88;5284193;28;20032;-75
2022/11/26 07:05:50;;;;;;;46.40;19.93;;;;;;;2.73;100.00;102657.13;5284810;28;20037;-75
2022/11/26 07:08:22;;;;;;;41.08;19.00;;;;;;;2.77;100.00;102663.31;5284935;28;20408;-75
2022/11/26 07:10:53;;;;;;;54.77;20.83;;;;;;;2.78;100.00;102664.19;5284256;28;20033;-75
2022/11/26 07:13:24;;;;;;;46.23;18.97;;;;;;;2.72;100.00;102675.06;5283465;28;20025;-75
2022/11/26 07:16:01;;;;;;;51.30;21.43;;;;;;;2.72;100.00;102677.63;5284817;28;20067;-75
2022/11/26 07:18:34;;;;;;;50.58;20.63;;;;;;;2.74;100.00;102682.06;5285154;28;20349;-74
2022/11/26 07:21:11;;;;;;;49.40;19.87;;;;;;;2.71;100.00;102675.88;5285251;28;20106;-74
2022/11/26 07:23:42;;;;;;;47.20;21.13;;;;;;;2.73;100.00;102682.88;5285209;28;20440;-74
2022/11/26 07:26:15;;;;;;;42.57;19.83;;;;;;;2.72;100.00;102686.28;5285678;28;20029;-74
2022/11/26 07:28:47;;;;;;;;;;;;;;;2.69;100.00;102693.84;5285471;28;20036;-74
2022/11/26 07:31:21;;;;;;;50.95;22.67;;;;;;;2.80;100.00;102696.06;5283856;28;19942;-74
2022/11/26 07:33:52;;;;;;;47.75;22.50;;;;;;;2.76;100.00;102689.88;5284606;28;20380;-74
2022/11/26 07:36:28;;;;;;;57.60;23.80;;;;;;;2.80;100.00;102688.31;5284635;28;20036;-74
2022/11/26 07:39:01;;;;;;;59.70;25.00;;;;;;;2.85;100.00;102684.28;5284270;28;20033;-74
2022/11/26 07:41:33;;;;;;;64.30;26.45;;;;;;;2.90;100.00;102688.88;5283897;28;20036;-74
2022/11/26 07:44:04;;;;;;;55.03;24.60;;;;;;;2.91;100.00;102687.16;5283936;28;20036;-74
2022/11/26 07:46:36;;;;;;;61.67;26.07;;;;;;;2.98;100.00;102688.34;5284162;28;20033;-74
2022/11/26 07:49:07;;;;;;;53.27;26.03;;;;;;;3.01;100.00;102688.50;5284472;28;20043;-75
2022/11/26 07:51:38;;;;;;;49.77;24.40;;;;;;;3.05;100.00;102687.84;5282808;28;20037;-74
2022/11/26 07:54:10;;;;;;;56.73;27.20;;;;;;;3.11;100.00;102688.16;5283933;28;20040;-74
2022/11/26 07:56:41;;;;;;;67.97;27.20;;;;;;;3.13;100.00;102686.53;5283796;28;20021;-74
2022/11/26 07:59:13;;;;;;;64.03;27.57;;;;;;;3.19;100.00;102684.25;5283776;28;20057;-75
2022/11/26 08:01:44;;;;;;;53.10;27.73;;;;;;;3.23;100.00;102687.84;5283860;28;20028;-74
2022/11/26 08:04:15;;;;;;;60.60;27.20;;;;;;;3.28;100.00;102683.78;5285467;28;20131;-74
2022/11/26 08:06:47;;;;;;;61.90;28.47;;;;;;;3.35;100.00;102682.38;5286889;28;20062;-74
2022/11/26 08:09:18;;;;;;;67.30;28.53;;;;;;;3.41;100.00;102688.75;5284469;28;20043;-75
2022/11/26 08:11:49;;;;;;;59.63;28.33;;;;;;;3.47;100.00;102689.00;5284008;28;20028;-75
2022/11/26 08:14:21;;;;;;;61.20;28.47;;;;;;;3.54;100.00;102684.16;5283115;28;20078;-73
2022/11/26 08:16:52;;;;;;;56.50;27.53;;;;;;;3.62;100.00;102694.03;5282446;28;20032;-74
2022/11/26 08:19:24;;;;;;;48.70;26.20;;;;;;;3.70;100.00;102694.34;5284229;28;20087;-74
2022/11/26 08:21:55;;;;;;;50.93;26.73;;;;;;;3.78;100.00;102690.47;5284021;28;20032;-73
2022/11/26 08:24:27;;;;;;;62.77;26.83;;;;;;;3.83;100.00;102688.06;5284181;28;20120;-71
2022/11/26 08:26:58;;;;;;;58.70;27.27;;;;;;;3.89;100.00;102698.66;5282994;28;20041;-72
2022/11/26 08:29:30;;;;;;;58.33;24.70;;;;;;;3.93;100.00;102698.00;5284241;28;20081;-72
2022/11/26 08:32:01;;;;;;;42.60;23.60;;;;;;;3.97;100.00;102706.75;5284648;28;20036;-73
2022/11/26 08:34:32;;;;;;;47.33;24.87;;;;;;;4.01;100.00;102709.56;5284191;28;20060;-73
2022/11/26 08:37:04;;;;;;;54.83;23.63;;;;;;;4.04;100.00;102702.75;5283970;28;20134;-73
2022/11/26 08:39:35;;;;;;;46.03;22.73;;;;;;;4.08;100.00;102707.25;5283861;28;20036;-74
2022/11/26 08:42:07;;;;;;;60.43;22.37;;;;;;;4.11;100.00;102709.97;5283078;28;20029;-74
2022/11/26 08:44:38;;;;;;;54.47;22.47;;;;;;;4.12;100.00;102715.22;5283078;28;20120;-73
2022/11/26 08:47:10;;;;;;;51.10;21.90;;;;;;;4.18;100.00;102718.03;5283551;28;20071;-73
2022/11/26 08:49:41;;;;;;;39.37;21.53;;;;;;;4.23;100.00;102709.63;5283650;28;20044;-73
2022/11/26 08:52:12;;;;;;;48.43;21.17;;;;;;;4.29;100.00;102715.06;5283662;28;20425;-71
2022/11/26 08:54:44;;;;;;;50.30;22.23;;;;;;;4.35;100.00;102713.63;5283127;28;20078;-72
2022/11/26 08:57:15;;;;;;;52.50;21.00;;;;;;;4.44;100.00;102705.38;5283466;28;20112;-71
2022/11/26 08:59:46;;;;;;;51.43;20.60;;;;;;;4.52;100.00;102706.63;5283478;28;20032;-72
2022/11/26 09:02:18;;;;;;;43.97;20.23;;;;;;;4.59;100.00;102706.88;5283597;28;20029;-72
2022/11/26 09:04:49;;;;;;;44.37;19.83;;;;;;;4.64;100.00;102716.59;5282846;28;20428;-72
2022/11/26 09:07:20;;;;;;;54.83;20.63;;;;;;;4.73;100.00;102724.75;5283214;28;20500;-72
2022/11/26 09:09:52;;;;;;;39.50;19.07;;;;;;;4.77;100.00;102719.72;5283158;28;20031;-72
2022/11/26 09:12:23;;;;;;;50.37;20.97;;;;;;;4.81;100.00;102724.16;5283005;28;20032;-72
2022/11/26 09:14:54;;;;;;;42.07;18.13;;;;;;;4.83;100.00;102725.09;5282001;28;20029;-72
2022/11/26 09:17:26;;;;;;;46.43;16.97;;;;;;;4.95;100.00;102733.38;5281759;28;20137;-72
2022/11/26 09:19:57;;;;;;;45.43;15.33;;;;;;;4.99;100.00;102731.81;5282966;28;20053;-72
2022/11/26 09:22:28;;;;;;;56.97;21.97;;;;;;;5.06;100.00;102732.13;5283121;28;20035;-72
2022/11/26 09:25:00;;;;;;;46.50;16.83;;;;;;;5.14;100.00;102729.84;5284333;28;20032;-73
2022/11/26 09:27:31;;;;;;;40.37;17.73;;;;;;;5.14;100.00;102737.63;5285738;28;20542;-71
2022/11/26 09:30:03;;;;;;;47.30;18.37;;;;;;;5.22;100.00;102745.69;5287222;28;20032;-72
2022/11/26 09:32:36;;;;;;;35.90;16.00;;;;;;;5.27;100.00;102745.03;5285364;28;20040;-73
2022/11/26 09:35:07;;;;;;;37.13;16.05;;;;;;;5.34;100.00;102747.88;5286766;28;20059;-73
2022/11/26 09:37:39;;;;;;;36.10;15.77;;;;;;;5.45;100.00;102750.06;5286736;28;20127;-73
2022/11/26 09:40:17;;;;;;;36.17;17.13;;;;;;;5.57;100.00;102753.97;5286571;28;20090;-72
2022/11/26 09:43:02;;;;;;;39.05;15.95;;;;;;;5.65;100.00;102757.72;5287003;28;20028;-73
2022/11/26 09:45:51;;;;;;;34.58;16.02;;;;;;;5.76;100.00;102750.38;5286331;28;20083;-73
2022/11/26 09:48:25;;;;;;;36.55;14.82;;;;;;;5.83;100.00;102744.66;5286281;28;20025;-73
2022/11/26 09:51:05;;;;;;;30.60;12.95;;;;;;;5.91;100.00;102740.63;5286460;28;20041;-73
2022/11/26 09:53:43;;;;;;;34.33;13.30;;;;;;;5.92;100.00;102742.38;5286753;28;20367;-72
2022/11/26 09:56:20;;;;;;;24.30;12.10;;;;;;;6.03;100.00;102748.88;5286974;28;20127;-71
2022/11/26 09:59:01;;;;;;;33.03;12.63;;;;;;;6.07;100.00;102742.13;5286423;28;20387;-71
2022/11/26 10:01:33;;;;;;;30.83;12.48;;;;;;;6.11;100.00;102735.34;5286676;28;20028;-71
2022/11/26 10:04:15;;;;;;;36.70;14.13;;;;;;;6.15;100.00;102739.81;5286075;28;20424;-71
2022/11/26 10:07:04;;;;;;;32.53;12.88;;;;;;;6.27;100.00;102739.41;5285984;28;20043;-71
2022/11/26 10:09:58;;;;;;;38.50;14.40;;;;;;;6.32;100.00;102746.50;5286481;28;20111;-71
2022/11/26 10:13:00;;;;;;;28.90;11.80;;;;;;;6.36;100.00;102752.69;5286064;28;20368;-72
2022/11/26 10:15:49;;;;;;;34.88;12.65;;;;;;;6.39;100.00;102745.00;5286085;28;20024;-72
2022/11/26 10:18:28;;;;;;;38.33;12.75;;;;;;;6.42;100.00;102758.06;5286343;28;20062;-72
2022/11/26 10:21:13;;;;;;;35.47;11.85;;;;;;;6.56;100.00;102756.84;5286307;28;20025;-72
2022/11/26 10:23:56;;;;;;;26.20;11.57;;;;;;;6.71;100.00;102751.34;5285933;28;20028;-72
2022/11/26 10:26:33;;;;;;;43.75;13.02;;;;;;;6.99;100.00;102751.38;5286496;28;20029;-72
2022/11/26 10:29:17;;;;;;;26.33;10.52;;;;;;;7.49;100.00;102746.97;5289005;28;20025;-72
2022/11/26 10:31:53;;;;;;;25.70;10.52;;;;;;;7.90;100.00;102747.34;5286811;28;20063;-73
2022/11/26 10:34:46;;;;;;;31.95;11.15;;;;;;;8.45;100.00;102745.47;5285688;28;20060;-72
2022/11/26 10:37:20;;;;;;;22.38;9.25;;;;;;;8.62;100.00;102739.88;5284237;28;20309;-73
2022/11/26 10:40:24;;;;;;;27.08;9.40;;;;;;;8.68;99.80;102729.66;5285442;28;20056;-72
2022/11/26 10:43:09;;;;;;;26.10;9.02;;;;;;;8.51;99.41;102729.19;5280991;28;20127;-73
2022/11/26 10:45:49;;;;;;;25.67;9.57;;;;;;;8.46;99.14;102731.66;5285433;28;20028;-73
2022/11/26 10:48:34;;;;;;;24.88;9.00;;;;;;;8.64;99.82;102723.47;5285730;28;20028;-72
2022/11/26 10:51:14;;;;;;;26.33;8.95;;;;;;;8.85;97.83;102730.94;5284821;28;20036;-72
2022/11/26 10:54:01;;;;;;;26.58;9.07;;;;;;;9.08;96.82;102722.81;5284942;28;20447;-73
2022/11/26 10:56:44;;;;;;;18.48;7.85;;;;;;;9.49;94.70;102726.41;5284566;28;20028;-73
2022/11/26 10:59:21;;;;;;;18.55;8.50;;;;;;;9.60;95.15;102728.41;5284956;28;20086;-72
2022/11/26 11:01:54;;;;;;;22.60;7.60;;;;;;;10.01;91.85;102721.47;5284811;28;20035;-72
2022/11/26 11:04:30;;;;;;;25.92;8.07;;;;;;;10.55;90.29;102726.88;5284641;28;20448;-72
2022/11/26 11:07:02;;;;;;;19.90;8.15;;;;;;;10.88;87.71;102724.00;5283375;28;20444;-73
2022/11/26 11:09:36;;;;;;;21.80;8.63;;;;;;;11.51;86.54;102726.69;5283374;28;20033;-73
2022/11/26 11:12:10;;;;;;;23.00;8.18;;;;;;;12.19;82.69;102717.19;5284513;28;20016;-73
2022/11/26 11:14:44;;;;;;;20.95;7.88;;;;;;;11.86;81.00;102722.00;5284545;28;20078;-73
2022/11/26 11:17:36;;;;;;;20.70;7.05;;;;;;;12.43;81.46;102724.41;5285269;28;20123;-72
2022/11/26 11:20:14;;;;;;;16.13;7.40;;;;;;;12.43;78.15;102732.25;5286185;28;20325;-72
2022/11/26 11:22:46;;;;;;;19.45;8.32;;;;;;;12.85;77.07;102724.81;5285408;28;20447;-73
2022/11/26 11:25:23;;;;;;;21.77;8.35;;;;;;;13.35;75.21;102729.59;5285272;28;20090;-72
2022/11/26 11:28:19;;;;;;;18.80;6.95;;;;;;;13.16;75.26;102731.19;5285518;28;20120;-72
2022/11/26 11:31:01;;;;;;;20.58;8.00;;;;;;;13.27;74.21;102723.41;5285062;28;20145;-72
2022/11/26 11:33:33;;;;;;;21.87;7.10;;;;;;;14.12;71.81;102724.75;5284238;28;20430;-72
2022/11/26 11:36:17;;;;;;;15.80;6.20;;;;;;;14.51;71.58;102725.72;5284560;28;20032;-72
2022/11/26 11:38:58;;;;;;;18.50;6.90;;;;;;;14.78;67.10;102726.69;5284827;28;20490;-73
2022/11/26 11:41:34;;;;;;;23.00;7.60;;;;;;;14.98;65.85;102718.78;5284818;28;20060;-71